createdAt,value
2023-05-19T00:01:28.387Z,15.62
2023-05-19T00:04:05.461Z,15.64
2023-05-19T00:06:41.656Z,15.68
2023-05-19T00:09:15.405Z,15.70
2023-05-19T00:11:50.823Z,15.73
2023-05-19T00:14:25.795Z,15.75
2023-05-19T00:17:02.190Z,15.77
2023-05-19T00:19:35.555Z,15.78
2023-05-19T00:22:09.692Z,15.81
2023-05-19T00:24:43.220Z,15.83
2023-05-19T00:27:16.686Z,15.85
2023-05-19T00:29:50.657Z,15.87
2023-05-19T00:32:24.773Z,15.88
2023-05-19T00:34:59.567Z,15.89
2023-05-19T00:37:33.609Z,15.88
2023-05-19T00:40:10.056Z,15.91
2023-05-19T00:42:44.458Z,15.90
2023-05-19T00:45:18.296Z,15.91
2023-05-19T00:47:51.898Z,15.91
2023-05-19T00:50:27.454Z,15.92
2023-05-19T00:53:01.351Z,15.93
2023-05-19T00:55:38.479Z,15.91
2023-05-19T00:58:13.228Z,15.91
2023-05-19T01:00:47.463Z,15.90
2023-05-19T01:03:21.784Z,15.91
2023-05-19T01:05:56.011Z,15.89
2023-05-19T01:08:31.828Z,15.89
2023-05-19T01:11:06.865Z,15.90
2023-05-19T01:13:42.188Z,15.90
2023-05-19T01:16:24.024Z,15.91
2023-05-19T01:19:06.951Z,15.91
2023-05-19T01:22:13.459Z,15.92
2023-05-19T01:25:25.591Z,15.93
2023-05-19T01:28:27.921Z,15.94
2023-05-19T01:31:04.311Z,15.96
2023-05-19T01:33:39.493Z,15.96
2023-05-19T01:36:14.857Z,15.97
2023-05-19T01:38:50.154Z,15.98
2023-05-19T01:41:26.204Z,15.98
2023-05-19T01:44:00.792Z,15.96
2023-05-19T01:46:35.827Z,15.97
2023-05-19T01:49:11.501Z,15.94
2023-05-19T01:51:45.820Z,15.92
2023-05-19T01:54:18.757Z,15.90
2023-05-19T01:57:02.045Z,15.88
2023-05-19T01:59:44.090Z,15.85
2023-05-19T02:02:23.093Z,15.82
2023-05-19T02:05:01.743Z,15.79
2023-05-19T02:07:46.128Z,15.76
2023-05-19T02:10:25.493Z,15.72
2023-05-19T02:13:02.840Z,15.67
2023-05-19T02:15:42.324Z,15.64
2023-05-19T02:18:20.630Z,15.60
2023-05-19T02:20:58.229Z,15.57
2023-05-19T02:23:32.506Z,15.54
2023-05-19T02:26:08.806Z,15.51
2023-05-19T02:28:41.960Z,15.48
2023-05-19T02:31:15.765Z,15.45
2023-05-19T02:33:49.074Z,15.42
2023-05-19T02:36:23.272Z,15.38
2023-05-19T02:38:57.814Z,15.36
2023-05-19T02:41:32.412Z,15.33
2023-05-19T02:44:06.520Z,15.28
2023-05-19T02:46:41.186Z,15.23
2023-05-19T02:49:15.000Z,15.19
2023-05-19T02:51:48.459Z,15.15
2023-05-19T02:54:21.503Z,15.09
2023-05-19T02:56:55.244Z,15.03
2023-05-19T02:59:29.268Z,14.99
2023-05-19T03:02:04.531Z,14.94
2023-05-19T03:04:42.992Z,14.87
2023-05-19T03:07:17.103Z,14.83
2023-05-19T03:09:50.296Z,14.78
2023-05-19T03:12:24.005Z,14.76
2023-05-19T03:14:57.198Z,14.72
2023-05-19T03:17:34.372Z,14.66
2023-05-19T03:20:11.512Z,14.62
2023-05-19T03:22:45.377Z,14.59
2023-05-19T03:25:19.080Z,14.56
2023-05-19T03:27:53.211Z,14.52
2023-05-19T03:30:27.418Z,14.49
2023-05-19T03:33:13.067Z,14.46
2023-05-19T03:35:46.372Z,14.44
2023-05-19T03:38:20.160Z,14.42
2023-05-19T03:40:58.250Z,14.38
2023-05-19T03:43:32.300Z,14.37
2023-05-19T03:46:09.943Z,14.35
2023-05-19T03:49:15.297Z,14.32
2023-05-19T03:52:10.045Z,14.32
2023-05-19T03:54:59.282Z,14.30
2023-05-19T03:57:33.931Z,14.29
2023-05-19T04:00:11.587Z,14.30
2023-05-19T04:02:48.685Z,14.31
2023-05-19T04:05:23.657Z,14.33
2023-05-19T04:07:57.558Z,14.37
2023-05-19T04:10:32.488Z,14.40
2023-05-19T04:13:05.993Z,14.46
2023-05-19T04:15:39.598Z,14.52
2023-05-19T04:18:13.840Z,14.59
2023-05-19T04:20:47.584Z,14.67
2023-05-19T04:23:21.703Z,14.75
2023-05-19T04:25:57.307Z,14.86
2023-05-19T04:28:31.605Z,14.96
2023-05-19T04:31:11.195Z,15.07
2023-05-19T04:33:46.317Z,15.20
2023-05-19T04:36:21.968Z,15.31
2023-05-19T04:39:02.483Z,15.44
2023-05-19T04:41:36.340Z,15.57
2023-05-19T04:44:11.286Z,15.70
2023-05-19T04:46:45.524Z,15.79
2023-05-19T04:49:20.944Z,15.85
2023-05-19T04:51:56.838Z,15.92
2023-05-19T04:54:32.837Z,16.02
2023-05-19T04:57:07.958Z,16.09
2023-05-19T04:59:44.937Z,16.21
2023-05-19T05:02:18.834Z,16.32
2023-05-19T05:04:54.922Z,16.42
2023-05-19T05:07:31.578Z,16.55
2023-05-19T05:10:06.257Z,16.66
2023-05-19T05:12:42.978Z,16.73
2023-05-19T05:15:19.801Z,16.83
2023-05-19T05:17:57.070Z,16.95
2023-05-19T05:20:34.694Z,17.08
2023-05-19T05:23:14.837Z,17.23
2023-05-19T05:25:51.984Z,17.39
2023-05-19T05:28:25.814Z,17.54
2023-05-19T05:30:59.696Z,17.71
2023-05-19T05:33:33.559Z,17.87
2023-05-19T05:36:08.878Z,18.04
2023-05-19T05:38:42.522Z,18.18
2023-05-19T05:41:17.672Z,18.31
2023-05-19T05:43:53.148Z,18.46
2023-05-19T05:46:27.423Z,18.60
2023-05-19T05:49:03.183Z,18.72
2023-05-19T05:51:38.546Z,18.87
2023-05-19T05:54:17.436Z,19.02
2023-05-19T05:56:53.562Z,19.14
2023-05-19T05:59:27.735Z,19.28
2023-05-19T06:02:01.835Z,19.45
2023-05-19T06:04:36.602Z,19.60
2023-05-19T06:07:11.197Z,19.73
2023-05-19T06:09:44.422Z,19.85
2023-05-19T06:12:18.541Z,20.00
2023-05-19T06:14:54.053Z,20.12
2023-05-19T06:17:44.708Z,20.23
2023-05-19T06:20:20.520Z,20.37
2023-05-19T06:22:54.638Z,20.50
2023-05-19T06:25:28.525Z,20.62
2023-05-19T06:28:02.675Z,20.78
2023-05-19T06:30:37.186Z,20.92
2023-05-19T06:33:22.738Z,21.10
2023-05-19T06:35:56.709Z,21.25
2023-05-19T06:38:31.708Z,21.37
2023-05-19T06:41:06.102Z,21.49
2023-05-19T06:43:40.346Z,21.57
2023-05-19T06:46:18.106Z,21.71
2023-05-19T06:48:51.808Z,21.82
2023-05-19T06:51:27.170Z,21.94
2023-05-19T06:54:03.180Z,22.06
2023-05-19T06:56:38.337Z,22.18
2023-05-19T06:59:13.240Z,22.30
2023-05-19T07:01:48.227Z,22.40
2023-05-19T07:04:23.848Z,22.46
2023-05-19T07:06:57.713Z,22.52
2023-05-19T07:09:31.173Z,22.62
2023-05-19T07:12:05.468Z,22.71
2023-05-19T07:14:40.220Z,22.79
2023-05-19T07:17:14.896Z,22.89
2023-05-19T07:19:50.827Z,23.03
2023-05-19T07:22:25.360Z,23.12
2023-05-19T07:24:58.922Z,23.19
2023-05-19T07:27:32.753Z,23.33
2023-05-19T07:30:10.111Z,23.41
2023-05-19T07:32:43.683Z,23.51
2023-05-19T07:35:17.957Z,23.64
2023-05-19T07:37:52.731Z,23.77
2023-05-19T07:40:26.207Z,23.88
2023-05-19T07:42:59.570Z,24.01
2023-05-19T07:45:33.526Z,24.08
2023-05-19T07:48:08.048Z,24.17
2023-05-19T07:50:41.566Z,24.23
2023-05-19T07:53:15.911Z,24.35
2023-05-19T07:55:50.354Z,24.43
2023-05-19T07:58:24.745Z,24.48
2023-05-19T08:01:00.709Z,24.54
2023-05-19T08:03:34.858Z,24.65
2023-05-19T08:06:09.617Z,24.78
2023-05-19T08:08:43.820Z,24.87
2023-05-19T08:11:17.818Z,24.97
2023-05-19T08:13:51.986Z,25.05
2023-05-19T08:16:25.836Z,25.15
2023-05-19T08:19:02.716Z,25.29
2023-05-19T08:21:37.353Z,25.38
2023-05-19T08:24:11.656Z,25.43
2023-05-19T08:26:47.228Z,25.52
2023-05-19T08:29:21.225Z,25.59
2023-05-19T08:31:55.324Z,25.70
2023-05-19T08:34:29.249Z,25.78
2023-05-19T08:37:03.629Z,25.85
2023-05-19T08:39:36.897Z,25.91
2023-05-19T08:42:11.676Z,26.05
2023-05-19T08:44:45.980Z,26.12
2023-05-19T08:47:21.162Z,26.18
2023-05-19T08:50:03.587Z,26.20
2023-05-19T08:52:52.540Z,26.26
2023-05-19T08:55:34.715Z,26.36
2023-05-19T08:58:09.700Z,26.43
2023-05-19T09:00:44.886Z,26.47
2023-05-19T09:03:23.935Z,26.52
2023-05-19T09:05:58.384Z,26.53
2023-05-19T09:08:32.556Z,26.55
2023-05-19T09:11:06.579Z,26.59
2023-05-19T09:13:40.792Z,26.62
2023-05-19T09:16:14.308Z,26.65
2023-05-19T09:19:01.185Z,26.67
2023-05-19T09:21:36.667Z,26.62
2023-05-19T09:24:12.671Z,26.64
2023-05-19T09:26:46.250Z,26.69
2023-05-19T09:29:20.440Z,26.76
2023-05-19T09:32:01.059Z,26.84
2023-05-19T09:34:35.665Z,26.90
2023-05-19T09:37:09.888Z,26.96
2023-05-19T09:39:49.012Z,27.03
2023-05-19T09:42:29.976Z,27.13
2023-05-19T09:45:08.733Z,27.22
2023-05-19T09:47:44.291Z,27.31
2023-05-19T09:50:18.427Z,27.36
2023-05-19T09:52:53.617Z,27.43
2023-05-19T09:55:30.578Z,27.53
2023-05-19T09:58:06.390Z,27.64
2023-05-19T10:00:41.731Z,27.72
2023-05-19T10:03:17.859Z,27.78
2023-05-19T10:05:53.024Z,27.85
2023-05-19T10:08:27.868Z,27.91
2023-05-19T10:11:01.708Z,27.94
2023-05-19T10:13:39.010Z,27.99
2023-05-19T10:16:13.673Z,28.06
2023-05-19T10:18:47.593Z,28.17
2023-05-19T10:21:21.743Z,28.26
2023-05-19T10:23:55.937Z,28.34
2023-05-19T10:26:30.124Z,28.38
2023-05-19T10:29:04.422Z,28.39
2023-05-19T10:31:40.456Z,28.37
2023-05-19T10:34:37.898Z,28.32
2023-05-19T10:37:22.345Z,28.29
2023-05-19T10:39:56.520Z,28.30
2023-05-19T10:42:38.444Z,28.33
2023-05-19T10:45:19.334Z,28.36
2023-05-19T10:47:53.763Z,28.42
2023-05-19T10:50:30.491Z,28.50
2023-05-19T10:53:06.063Z,28.59
2023-05-19T10:55:56.436Z,28.68
2023-05-19T10:58:51.032Z,28.75
2023-05-19T11:01:31.125Z,28.82
2023-05-19T11:04:12.560Z,28.89
2023-05-19T11:06:54.176Z,28.97
2023-05-19T11:09:38.209Z,29.04
2023-05-19T11:12:14.598Z,29.09
2023-05-19T11:14:48.605Z,29.13
2023-05-19T11:17:24.109Z,29.16
2023-05-19T11:20:00.301Z,29.20
2023-05-19T11:22:37.281Z,29.24
2023-05-19T11:25:10.906Z,29.25
2023-05-19T11:27:47.933Z,29.24
2023-05-19T11:30:22.071Z,29.29
2023-05-19T11:32:57.954Z,29.36
2023-05-19T11:35:36.263Z,29.44
2023-05-19T11:38:10.259Z,29.48
2023-05-19T11:40:45.452Z,29.52
2023-05-19T11:43:19.456Z,29.58
2023-05-19T11:45:54.798Z,29.61
2023-05-19T11:48:28.280Z,29.68
2023-05-19T11:51:03.422Z,29.73
2023-05-19T11:53:38.890Z,29.76
2023-05-19T11:56:13.290Z,29.77
2023-05-19T11:58:46.978Z,29.79
2023-05-19T12:01:20.598Z,29.79
2023-05-19T12:03:54.736Z,29.80
2023-05-19T12:06:29.223Z,29.83
2023-05-19T12:09:03.287Z,29.86
2023-05-19T12:11:39.492Z,29.86
2023-05-19T12:14:14.670Z,29.79
2023-05-19T12:16:49.115Z,29.77
2023-05-19T12:19:26.363Z,29.79
2023-05-19T12:22:01.666Z,29.84
2023-05-19T12:24:37.568Z,29.80
2023-05-19T12:27:14.283Z,29.78
2023-05-19T12:29:53.585Z,29.76
2023-05-19T12:32:29.296Z,29.77
2023-05-19T12:35:03.553Z,29.81
2023-05-19T12:37:38.362Z,29.83
2023-05-19T12:40:16.924Z,29.84
2023-05-19T12:42:52.335Z,29.88
2023-05-19T12:45:28.706Z,29.96
2023-05-19T12:48:07.344Z,30.05
2023-05-19T12:50:41.553Z,30.06
2023-05-19T12:53:16.391Z,30.04
2023-05-19T12:55:49.787Z,30.05
2023-05-19T12:58:24.625Z,30.10
2023-05-19T13:01:01.773Z,30.12
2023-05-19T13:03:40.961Z,30.18
2023-05-19T13:06:14.920Z,30.23
2023-05-19T13:08:50.238Z,30.22
2023-05-19T13:11:24.527Z,30.25
2023-05-19T13:13:58.395Z,30.24
2023-05-19T13:16:31.703Z,30.20
2023-05-19T13:19:06.353Z,30.17
2023-05-19T13:21:40.623Z,30.24
2023-05-19T13:24:14.731Z,30.28
2023-05-19T13:26:49.338Z,30.28
2023-05-19T13:29:22.610Z,30.29
2023-05-19T13:31:57.346Z,30.26
2023-05-19T13:34:32.130Z,30.30
2023-05-19T13:37:07.670Z,30.33
2023-05-19T13:39:42.709Z,30.31
2023-05-19T13:42:17.758Z,30.29
2023-05-19T13:44:51.728Z,30.34
2023-05-19T13:47:27.056Z,30.40
2023-05-19T13:50:01.286Z,30.43
2023-05-19T13:52:35.614Z,30.44
2023-05-19T13:55:10.200Z,30.47
2023-05-19T13:57:44.357Z,30.45
2023-05-19T14:00:21.523Z,30.44
2023-05-19T14:02:55.538Z,30.42
2023-05-19T14:05:31.383Z,30.37
2023-05-19T14:08:05.686Z,30.33
2023-05-19T14:10:39.022Z,30.29
2023-05-19T14:13:31.036Z,30.28
2023-05-19T14:16:08.210Z,29.92
2023-05-19T14:18:42.325Z,29.45
2023-05-19T14:21:16.647Z,28.97
2023-05-19T14:23:50.585Z,28.45
2023-05-19T14:26:24.387Z,27.99
2023-05-19T14:28:58.662Z,27.62
2023-05-19T14:31:32.781Z,27.30
2023-05-19T14:34:06.890Z,27.04
2023-05-19T14:36:41.327Z,26.77
2023-05-19T14:39:15.266Z,26.50
2023-05-19T14:41:51.228Z,26.18
2023-05-19T14:44:24.960Z,25.91
2023-05-19T14:46:58.785Z,25.76
2023-05-19T14:49:32.944Z,25.63
2023-05-19T14:52:07.928Z,25.54
2023-05-19T14:54:41.636Z,25.47
2023-05-19T14:57:16.058Z,25.38
2023-05-19T14:59:50.384Z,25.29
2023-05-19T15:02:24.702Z,25.21
2023-05-19T15:04:58.776Z,25.14
2023-05-19T15:07:32.982Z,25.11
2023-05-19T15:10:06.592Z,25.04
2023-05-19T15:12:40.687Z,24.96
2023-05-19T15:15:17.402Z,24.89
2023-05-19T15:17:51.084Z,24.82
2023-05-19T15:20:25.639Z,24.74
2023-05-19T15:23:01.123Z,24.68
2023-05-19T15:25:34.459Z,24.60
2023-05-19T15:28:08.497Z,24.53
2023-05-19T15:30:43.751Z,24.46
2023-05-19T15:33:17.593Z,24.43
2023-05-19T15:35:52.457Z,24.36
2023-05-19T15:38:27.832Z,24.29
2023-05-19T15:41:07.129Z,24.22
2023-05-19T15:43:41.756Z,24.17
2023-05-19T15:46:16.426Z,24.12
2023-05-19T15:48:49.968Z,24.06
2023-05-19T15:51:24.502Z,23.99
2023-05-19T15:53:57.859Z,23.86
2023-05-19T15:56:30.980Z,23.73
2023-05-19T15:59:05.070Z,23.60
2023-05-19T16:01:39.613Z,23.49
2023-05-19T16:04:13.389Z,23.39
2023-05-19T16:06:47.662Z,23.24
2023-05-19T16:09:21.272Z,23.11
2023-05-19T16:11:55.441Z,23.04
2023-05-19T16:14:31.391Z,22.98
2023-05-19T16:17:04.933Z,22.89
2023-05-19T16:19:39.189Z,22.84
2023-05-19T16:22:12.744Z,22.80
2023-05-19T16:24:46.210Z,22.74
2023-05-19T16:27:20.319Z,22.69
2023-05-19T16:29:54.127Z,22.65
2023-05-19T16:32:28.263Z,22.55
2023-05-19T16:35:02.217Z,22.50
2023-05-19T16:37:36.290Z,22.45
2023-05-19T16:40:11.052Z,22.39
2023-05-19T16:42:45.198Z,22.37
2023-05-19T16:45:19.211Z,22.32
2023-05-19T16:47:53.078Z,22.27
2023-05-19T16:50:27.016Z,22.24
2023-05-19T16:53:01.409Z,22.22
2023-05-19T16:55:35.046Z,22.19
2023-05-19T16:58:10.909Z,22.15
2023-05-19T17:00:44.845Z,22.08
2023-05-19T17:03:18.728Z,22.00
2023-05-19T17:05:52.711Z,21.94
2023-05-19T17:08:27.054Z,21.89
2023-05-19T17:11:00.942Z,21.83
2023-05-19T17:13:36.592Z,21.80
2023-05-19T17:16:11.380Z,21.75
2023-05-19T17:18:45.053Z,21.74
2023-05-19T17:21:19.112Z,21.71
2023-05-19T17:23:53.055Z,21.66
2023-05-19T17:26:26.668Z,21.64
2023-05-19T17:29:00.452Z,21.60
2023-05-19T17:31:34.293Z,21.58
2023-05-19T17:34:08.515Z,21.56
2023-05-19T17:36:42.194Z,21.54
2023-05-19T17:39:15.865Z,21.53
2023-05-19T17:41:49.772Z,21.51
2023-05-19T17:44:23.803Z,21.49
2023-05-19T17:46:58.252Z,21.48
2023-05-19T17:49:32.555Z,21.46
2023-05-19T17:52:09.007Z,21.42
2023-05-19T17:54:44.252Z,21.38
2023-05-19T17:57:19.386Z,21.34
2023-05-19T17:59:55.244Z,21.29
2023-05-19T18:02:31.779Z,21.26
2023-05-19T18:05:08.697Z,21.23
2023-05-19T18:07:43.664Z,21.21
2023-05-19T18:10:18.637Z,21.17
2023-05-19T18:12:51.911Z,21.15
2023-05-19T18:15:27.688Z,21.12
2023-05-19T18:18:01.187Z,21.09
2023-05-19T18:20:35.866Z,21.08
2023-05-19T18:23:11.209Z,21.05
2023-05-19T18:25:49.964Z,21.02
2023-05-19T18:28:24.497Z,21.00
2023-05-19T18:31:05.128Z,20.98
2023-05-19T18:33:39.037Z,20.96
2023-05-19T18:36:13.718Z,20.95
2023-05-19T18:38:49.017Z,20.95
2023-05-19T18:41:23.226Z,20.93
2023-05-19T18:43:57.863Z,20.92
2023-05-19T18:46:31.718Z,20.90
2023-05-19T18:49:05.800Z,20.89
2023-05-19T18:51:39.679Z,20.88
2023-05-19T18:54:13.888Z,20.85
2023-05-19T18:56:48.383Z,20.82
2023-05-19T18:59:24.898Z,20.79
2023-05-19T19:01:58.814Z,20.75
2023-05-19T19:04:32.734Z,20.72
2023-05-19T19:07:06.801Z,20.69
2023-05-19T19:09:43.992Z,20.61
2023-05-19T19:12:19.081Z,20.58
2023-05-19T19:14:53.821Z,20.54
2023-05-19T19:17:29.978Z,20.51
2023-05-19T19:20:05.354Z,20.50
2023-05-19T19:22:39.674Z,20.47
2023-05-19T19:25:13.770Z,20.43
2023-05-19T19:27:47.750Z,20.38
2023-05-19T19:30:22.511Z,20.34
2023-05-19T19:32:57.306Z,20.28
2023-05-19T19:35:31.623Z,20.25
2023-05-19T19:38:05.727Z,20.21
2023-05-19T19:40:39.243Z,20.17
2023-05-19T19:43:12.947Z,20.12
2023-05-19T19:45:47.708Z,20.09
2023-05-19T19:48:21.813Z,20.05
2023-05-19T19:50:58.937Z,20.01
2023-05-19T19:53:33.206Z,20.01
2023-05-19T19:56:07.405Z,19.96
2023-05-19T19:58:41.134Z,19.92
2023-05-19T20:01:16.512Z,19.90
2023-05-19T20:03:50.028Z,19.88
2023-05-19T20:06:24.861Z,19.83
2023-05-19T20:09:00.264Z,19.79
2023-05-19T20:11:34.926Z,19.75
2023-05-19T20:14:08.870Z,19.71
2023-05-19T20:16:43.388Z,19.67
2023-05-19T20:19:17.714Z,19.63
2023-05-19T20:21:51.854Z,19.61
2023-05-19T20:24:25.723Z,19.55
2023-05-19T20:26:59.741Z,19.48
2023-05-19T20:29:33.546Z,19.43
2023-05-19T20:32:07.433Z,19.39
2023-05-19T20:34:41.492Z,19.36
2023-05-19T20:37:14.805Z,19.32
2023-05-19T20:39:49.376Z,19.29
2023-05-19T20:42:24.021Z,19.27
2023-05-19T20:44:59.381Z,19.26
2023-05-19T20:47:32.536Z,19.25
2023-05-19T20:50:06.718Z,19.25
2023-05-19T20:52:40.865Z,19.25
2023-05-19T20:55:15.131Z,19.25
2023-05-19T20:57:48.797Z,19.25
2023-05-19T21:00:23.864Z,19.23
2023-05-19T21:02:58.058Z,19.21
2023-05-19T21:05:31.708Z,19.18
2023-05-19T21:08:05.579Z,19.14
2023-05-19T21:10:38.909Z,19.13
2023-05-19T21:13:13.344Z,19.13
2023-05-19T21:15:47.308Z,19.12
2023-05-19T21:18:21.376Z,19.09
2023-05-19T21:20:55.212Z,19.07
2023-05-19T21:23:29.471Z,19.01
2023-05-19T21:26:04.472Z,18.99
2023-05-19T21:28:37.682Z,18.95
2023-05-19T21:31:11.233Z,18.91
2023-05-19T21:33:45.631Z,18.87
2023-05-19T21:36:19.429Z,18.82
2023-05-19T21:38:53.376Z,18.81
2023-05-19T21:41:26.485Z,18.79
2023-05-19T21:44:02.110Z,18.79
2023-05-19T21:46:35.902Z,18.75
2023-05-19T21:49:09.679Z,18.73
2023-05-19T21:51:44.013Z,18.70
2023-05-19T21:54:17.924Z,18.66
2023-05-19T21:56:51.813Z,18.61
2023-05-19T21:59:26.648Z,18.57
2023-05-19T22:02:00.992Z,18.53
2023-05-19T22:04:34.969Z,18.47
2023-05-19T22:07:08.816Z,18.41
2023-05-19T22:09:42.633Z,18.35
2023-05-19T22:12:16.803Z,18.28
2023-05-19T22:14:51.061Z,18.21
2023-05-19T22:17:24.929Z,18.14
2023-05-19T22:19:58.627Z,18.08
2023-05-19T22:22:32.836Z,17.99
2023-05-19T22:25:09.020Z,17.93
2023-05-19T22:27:42.547Z,17.86
2023-05-19T22:30:16.721Z,17.80
2023-05-19T22:32:51.129Z,17.72
2023-05-19T22:35:25.140Z,17.64
2023-05-19T22:37:58.736Z,17.58
2023-05-19T22:40:32.856Z,17.51
2023-05-19T22:43:06.958Z,17.44
2023-05-19T22:45:40.981Z,17.37
2023-05-19T22:48:16.461Z,17.31
2023-05-19T22:50:50.417Z,17.24
2023-05-19T22:53:24.435Z,17.18
2023-05-19T22:55:57.823Z,17.09
2023-05-19T22:58:31.834Z,17.03
2023-05-19T23:01:05.871Z,16.95
2023-05-19T23:03:39.913Z,16.89
2023-05-19T23:06:13.477Z,16.84
2023-05-19T23:08:48.369Z,16.78
2023-05-19T23:11:22.306Z,16.70
2023-05-19T23:13:55.766Z,16.62
2023-05-19T23:16:29.662Z,16.56
2023-05-19T23:19:03.627Z,16.50
2023-05-19T23:21:37.724Z,16.43
2023-05-19T23:24:11.719Z,16.36
2023-05-19T23:26:46.376Z,16.31
2023-05-19T23:29:19.623Z,16.26
2023-05-19T23:31:53.649Z,16.19
2023-05-19T23:34:27.756Z,16.15
2023-05-19T23:37:01.661Z,16.08
2023-05-19T23:39:35.665Z,16.02
2023-05-19T23:42:10.612Z,15.95
2023-05-19T23:44:44.271Z,15.90
2023-05-19T23:47:18.634Z,15.85
2023-05-19T23:49:52.900Z,15.79
2023-05-19T23:52:26.647Z,15.74
2023-05-19T23:55:00.543Z,15.69
2023-05-19T23:57:34.780Z,15.64
